• Join FlightAware (Why Join?)
  • Login
  • US Flag 
12:11PM EDT


 

Airport Tracker/Info


-or-


 

Live Flight TrackerFlight Track Log ✈ N9AP ✈ 27-Apr-2012 ✈ KROC - KHPN

Flight Track Log - Related Links

Times and Time Zones

All times are in EDT time to prevent confusion due to time zone crossing. See the N9AP flight status page for this flight to view local times or setup timezone preferences in your user account.

Time Position Orientation Groundspeed Altitude Reporting Facility
EDT Latitude Longitude Course Direction KTS MPH feet Rate Location/Type
05:38AM 43.1053 -77.6797 140° Southeast 85 98 1,100  Level Cleveland Center
05:39AM 43.0839 -77.6553 128° Southeast 129 148 2,200 1,080 Climbing Cleveland Center
05:40AM 43.0619 -77.6164 126° Southeast 139 160 3,200 900 Climbing Cleveland Center
05:41AM 43.0358 -77.5667 125° Southeast 149 171 4,100 840 Climbing Cleveland Center
05:42AM 43.0117 -77.5194 121° Southeast 151 174 5,000 840 Climbing Cleveland Center
05:43AM 42.9894 -77.4694 129° Southeast 148 170 5,800 780 Climbing Cleveland Center
05:44AM 42.9631 -77.4253 121° Southeast 145 167 6,600 540 Climbing Cleveland Center
05:45AM 42.9408 -77.3756 124° Southeast 159 183 7,000 180 Climbing Cleveland Center
05:46AM 42.9122 -77.3175 127° Southeast 178 205 7,000 -60 Level Cleveland Center
05:47AM 42.8792 -77.2567 123° Southeast 195 224 6,900 -60 Descending Cleveland Center
05:48AM 42.8503 -77.1958 126° Southeast 193 222 6,900  Level Cleveland Center
05:49AM 42.8194 -77.1381 126° Southeast 192 221 6,900  Level Cleveland Center
05:50AM 42.7864 -77.0750 128° Southeast 193 222 6,900  Level Cleveland Center
05:51AM 42.7533 -77.0175 127° Southeast 193 222 6,900  Level Cleveland Center
05:52AM 42.7200 -76.9569 123° Southeast 192 221 6,900  Level Cleveland Center
05:53AM 42.6911 -76.8967 126° Southeast 191 220 7,000  Climbing Cleveland Center
05:54AM 42.6600 -76.8392 126° Southeast 191 220 7,000 360 Level Cleveland Center
05:55AM 42.6333 -76.7897 123° Southeast 162 186 7,800 780 Climbing Cleveland Center
05:56AM 42.6111 -76.7433 124° Southeast 142 163 8,600 480 Climbing Cleveland Center
05:57AM 42.5875 -76.6953 124° Southeast 149 171 8,800 60 Climbing New York Center
05:58AM 42.5631 -76.6453 118° Southeast 160 184 8,800  Level New York Center
05:59AM 42.5389 -76.5839 122° Southeast 175 201 8,900  Climbing New York Center
06:00AM 42.5125 -76.5256 117° Southeast 180 207 8,900  Level New York Center
06:01AM 42.4886 -76.4614 120° Southeast 180 207 9,000  Climbing New York Center
06:02AM 42.4625 -76.4003 122° Southeast 186 214 8,900 -60 Descending New York Center
06:03AM 42.4342 -76.3386 120° Southeast 186 214 8,900  Level New York Center
06:04AM 42.4058 -76.2717 122° Southeast 191 220 8,900  Level New York Center
06:05AM 42.3775 -76.2106 121° Southeast 191 220 8,900  Level New York Center
06:06AM 42.3511 -76.1522 121° Southeast 191 220 8,900 -60 Level New York Center
06:07AM 42.3228 -76.0881 125° Southeast 191 220 8,800 -60 Descending New York Center
06:08AM 42.2919 -76.0294 122° Southeast 191 220 8,800  Level New York Center
06:09AM 42.2633 -75.9683 127° Southeast 191 220 8,800  Level New York Center
06:10AM 42.2325 -75.9128 125° Southeast 197 227 8,900  Climbing New York Center
06:11AM 42.2017 -75.8544 127° Southeast 197 227 8,800 -60 Descending New York Center
06:12AM 42.1708 -75.7989 126° Southeast 192 221 8,800  Level New York Center
06:13AM 42.1439 -75.7492 125° Southeast 192 221 8,800  Level New York Center
06:14AM 42.1111 -75.6853 127° Southeast 192 221 8,800  Level New York Center
06:15AM 42.0781 -75.6269 126° Southeast 192 221 8,800  Level New York Center
06:16AM 42.0472 -75.5689 126° Southeast 192 221 8,800  Level New York Center
06:17AM 42.0161 -75.5108 129° Southeast 187 215 8,800  Level New York Center
06:18AM 41.9789 -75.4494 129° Southeast 187 215 8,800  Level New York Center
06:19AM 41.9458 -75.3942 126° Southeast 187 215 8,800  Level New York Center
06:20AM 41.9147 -75.3364 129° Southeast 187 215 8,800  Level New York Center
06:21AM 41.8833 -75.2839 129° Southeast 187 215 8,800  Level New York Center
06:22AM 41.8461 -75.2231 129° Southeast 187 215 8,800  Level New York Center
06:23AM 41.8128 -75.1681 127° Southeast 187 215 8,800  Level New York Center
06:24AM 41.7814 -75.1131 114° Southeast 187 215 8,800  Level New York Center
06:27AM 41.7325 -74.9633 114° Southeast 183 211 8,800  Level Boston Center
06:28AM 41.7069 -74.8872 112° Southeast 188 216 8,800  Level Boston Center
06:29AM 41.6894 -74.8281 111° Southeast 194 223 8,800  Level Boston Center
06:30AM 41.6681 -74.7550 114° Southeast 194 223 8,900  Climbing Boston Center
06:31AM 41.6483 -74.6961 116° Southeast 194 223 8,900  Level Boston Center
06:32AM 41.6228 -74.6256 116° Southeast 194 223 8,900  Level Boston Center
06:33AM 41.6008 -74.5667 116° Southeast 194 223 8,900 -60 Level Boston Center
06:34AM 41.5750 -74.4964 117° Southeast 194 223 8,800 -540 Descending Boston Center
06:35AM 41.5511 -74.4347 139° Southeast 201 231 7,900 -600 Descending Boston Center
06:37AM 41.4500 -74.3167 132° Southeast 206 237 6,900 -480 Descending New York TRACON
06:38AM 41.4167 -74.2667 135° Southeast 216 249 6,500 -420 Descending New York TRACON
06:39AM 41.3667 -74.2000 132° Southeast 213 245 6,100 -480 Descending New York TRACON
06:40AM 41.3333 -74.1500 143° Southeast 219 252 5,600 -600 Descending New York TRACON
06:41AM 41.2833 -74.1000 143° Southeast 224 258 5,100 -900 Descending New York TRACON
06:42AM 41.2333 -74.0500 132° Southeast 238 274 4,000 -900 Descending New York TRACON
06:42AM 41.2000 -74.0000 124° Southeast 225 259 3,400 -540 Descending New York TRACON
06:43AM 41.1667 -73.9333 124° Southeast 212 244 3,000 -420 Descending New York TRACON
06:44AM 41.1333 -73.8667 131° Southeast 201 231 2,700 -480 Descending New York TRACON
06:45AM 41.1000 -73.8167 114° Southeast 196 226 2,200 -420 Descending New York TRACON
06:46AM 41.0833 -73.7667 114° Southeast 186 214 2,000 -240 Descending New York TRACON